Time;durP1;ratioP1;P1;durP2;ratioP2;P2;SDS_P1;SDS_P2;PMS_P1;PMS_P2;Temp;Humidity;BMP_temperature;BMP_pressure;BME280_temperature;BME280_humidity;BME280_pressure;Samples;Min_cycle;Max_cycle;Signal;HPM_P1;HPM_P2
2022/01/16 00:06:13;;;;;;;44.57;29.67;;;3.40;99.90;;;;;;5029091;28;20249;-25
2022/01/16 00:08:40;;;;;;;43.53;29.33;;;3.30;99.90;;;;;;5027282;28;20591;-25
2022/01/16 00:11:08;;;;;;;42.57;28.77;;;3.30;99.90;;;;;;5029037;28;20284;-25
2022/01/16 00:13:38;;;;;;;45.10;30.60;;;3.30;99.90;;;;;;5027127;28;20216;-25
2022/01/16 00:16:05;;;;;;;48.10;30.13;;;3.30;99.90;;;;;;5029145;28;20315;-25
2022/01/16 00:18:42;;;;;;;47.97;30.00;;;3.30;99.90;;;;;;5029054;28;20210;-26
2022/01/16 00:21:10;;;;;;;45.30;30.67;;;3.30;99.90;;;;;;5029059;28;20231;-32
2022/01/16 00:23:37;;;;;;;49.43;31.97;;;3.30;99.90;;;;;;5028501;28;20221;-25
2022/01/16 00:26:04;;;;;;;47.07;31.20;;;3.20;99.90;;;;;;5043894;28;20671;-25
2022/01/16 00:28:34;;;;;;;47.07;31.53;;;3.30;99.90;;;;;;5027425;28;20236;-25
2022/01/16 00:31:01;;;;;;;44.10;29.80;;;3.30;99.90;;;;;;5027509;28;20205;-25
2022/01/16 00:33:31;;;;;;;46.23;31.07;;;3.30;99.90;;;;;;5027135;28;20617;-25
2022/01/16 00:35:58;;;;;;;46.17;29.80;;;3.30;99.90;;;;;;5028487;28;20201;-25
2022/01/16 00:38:25;;;;;;;47.90;30.40;;;3.30;99.90;;;;;;5028941;28;20215;-25
2022/01/16 00:40:55;;;;;;;47.97;30.63;;;3.20;99.90;;;;;;5028137;28;20215;-25
2022/01/16 00:43:22;;;;;;;46.30;29.63;;;3.30;99.90;;;;;;5028400;28;20334;-25
2022/01/16 00:45:49;;;;;;;46.63;30.87;;;3.30;99.90;;;;;;5028466;28;20764;-25
2022/01/16 00:48:17;;;;;;;47.00;30.37;;;3.30;99.90;;;;;;5016959;28;20563;-25
2022/01/16 00:50:44;;;;;;;48.60;31.37;;;3.30;99.90;;;;;;5010374;28;20238;-25
2022/01/16 00:53:12;;;;;;;47.40;31.10;;;3.30;99.90;;;;;;5008596;28;20198;-25
2022/01/16 00:55:40;;;;;;;45.30;30.27;;;3.40;99.90;;;;;;5023318;28;20205;-25
2022/01/16 00:58:08;;;;;;;46.90;30.67;;;3.40;99.90;;;;;;5019820;28;20219;-25
2022/01/16 01:00:35;;;;;;;52.67;32.07;;;3.40;99.90;;;;;;5027903;28;20220;-25
2022/01/16 01:03:05;;;;;;;49.07;31.30;;;3.50;99.90;;;;;;5027999;28;20300;-25
2022/01/16 01:05:35;;;;;;;47.07;30.97;;;3.50;99.90;;;;;;5027244;28;20203;-25
2022/01/16 01:08:04;;;;;;;46.87;30.70;;;3.50;99.90;;;;;;5026551;28;20235;-25
2022/01/16 01:10:35;;;;;;;48.43;31.10;;;3.60;99.90;;;;;;5027882;28;20212;-25
2022/01/16 01:13:12;;;;;;;50.33;32.97;;;3.60;99.90;;;;;;5026415;28;20274;-25
2022/01/16 01:15:43;;;;;;;46.50;30.13;;;3.60;99.90;;;;;;5027608;28;20208;-25
2022/01/16 01:18:15;;;;;;;45.77;31.93;;;3.60;99.90;;;;;;5028016;28;20219;-25
2022/01/16 01:20:46;;;;;;;47.90;32.20;;;3.60;99.90;;;;;;5027068;28;20213;-25
2022/01/16 01:23:18;;;;;;;46.83;30.47;;;3.60;99.90;;;;;;5027871;28;20201;-25
2022/01/16 01:25:50;;;;;;;50.80;31.37;;;3.60;99.90;;;;;;5026769;28;20303;-25
2022/01/16 01:28:18;;;;;;;47.83;31.43;;;3.60;99.90;;;;;;5027210;28;20628;-25
2022/01/16 01:30:45;;;;;;;50.63;32.63;;;3.60;99.90;;;;;;5027497;28;20758;-25
2022/01/16 01:33:19;;;;;;;48.50;30.97;;;3.60;99.90;;;;;;5027709;28;20205;-25
2022/01/16 01:35:48;;;;;;;48.67;30.97;;;3.60;99.90;;;;;;5026935;28;20213;-25
2022/01/16 01:38:18;;;;;;;47.73;30.93;;;3.60;99.90;;;;;;5026582;28;20630;-25
2022/01/16 01:40:50;;;;;;;53.73;33.10;;;3.70;99.90;;;;;;5027252;28;20255;-25
2022/01/16 01:51:42;;;;;;;48.47;31.83;;;3.80;99.90;;;;;;5028005;28;20232;-25
2022/01/16 01:54:10;;;;;;;49.77;32.97;;;3.80;99.90;;;;;;5031483;28;20208;-25
2022/01/16 01:56:39;;;;;;;49.63;31.67;;;3.90;99.90;;;;;;5031066;28;20296;-25
2022/01/16 01:59:07;;;;;;;48.67;32.37;;;3.90;99.90;;;;;;5029426;28;20205;-25
2022/01/16 02:01:35;;;;;;;56.70;35.17;;;3.90;99.90;;;;;;5031357;28;20864;-25
2022/01/16 02:04:02;;;;;;;50.23;33.77;;;4.00;99.90;;;;;;5029216;28;20307;-24
2022/01/16 02:06:31;;;;;;;52.93;33.73;;;4.00;99.90;;;;;;5029755;28;20197;-25
2022/01/16 02:09:03;;;;;;;56.07;33.70;;;4.00;99.90;;;;;;5029915;28;20224;-25
2022/01/16 02:11:32;;;;;;;51.23;33.70;;;4.10;99.90;;;;;;5031439;28;20209;-25
2022/01/16 02:14:24;;;;;;;54.60;33.83;;;4.10;99.90;;;;;;5030470;28;20589;-24
2022/01/16 02:28:22;;;;;;;52.83;33.70;;;4.30;99.90;;;;;;5030931;28;20639;-24
2022/01/16 02:31:26;;;;;;;56.00;35.17;;;4.30;99.90;;;;;;5030320;28;20292;-24
2022/01/16 02:36:46;;;;;;;55.33;33.23;;;4.30;99.90;;;;;;5030607;28;20308;-25
2022/01/16 02:39:16;;;;;;;52.73;33.20;;;4.30;99.90;;;;;;5026501;28;20232;-25
2022/01/16 02:41:47;;;;;;;54.53;34.80;;;4.40;99.90;;;;;;5029043;28;20239;-25
2022/01/16 02:44:22;;;;;;;53.60;34.23;;;4.40;99.90;;;;;;5029274;28;20212;-26
2022/01/16 02:46:52;;;;;;;54.63;35.23;;;4.50;99.90;;;;;;5030823;28;20707;-26
2022/01/16 02:49:31;;;;;;;53.67;35.17;;;4.50;99.90;;;;;;5009910;28;20198;-26
2022/01/16 02:52:05;;;;;;;60.07;35.23;;;4.50;99.90;;;;;;5010701;28;20253;-26
2022/01/16 02:54:36;;;;;;;54.20;34.77;;;4.60;99.90;;;;;;5010511;28;20619;-26
2022/01/16 02:57:06;;;;;;;54.73;34.37;;;4.60;99.90;;;;;;5028679;28;20227;-26
2022/01/16 02:59:33;;;;;;;53.60;33.33;;;4.60;99.90;;;;;;5030168;28;20303;-26
2022/01/16 03:02:01;;;;;;;53.90;35.30;;;4.60;99.90;;;;;;5030139;28;20286;-26
2022/01/16 03:04:29;;;;;;;56.40;35.53;;;4.60;99.90;;;;;;5027829;28;20699;-26
2022/01/16 03:06:59;;;;;;;57.37;35.33;;;4.70;99.90;;;;;;5045067;28;20197;-26
2022/01/16 03:09:36;;;;;;;53.63;33.70;;;4.70;99.90;;;;;;5030048;28;20225;-26
2022/01/16 03:12:09;;;;;;;52.83;33.03;;;4.70;99.90;;;;;;5029932;28;21007;-26
2022/01/16 03:14:39;;;;;;;52.50;34.73;;;4.80;99.90;;;;;;5028455;28;20224;-25
2022/01/16 03:17:10;;;;;;;55.40;34.77;;;4.80;99.90;;;;;;5010627;28;20660;-26
2022/01/16 03:22:23;;;;;;;53.30;33.63;;;4.80;99.90;;;;;;5029955;28;20235;-26
2022/01/16 03:24:53;;;;;;;53.57;33.47;;;4.80;99.90;;;;;;5027294;28;20561;-26
2022/01/16 03:27:22;;;;;;;53.83;35.20;;;4.90;99.90;;;;;;5029423;28;20233;-26
2022/01/16 03:29:52;;;;;;;54.80;35.77;;;4.90;99.90;;;;;;5029763;28;20209;-26
2022/01/16 03:32:21;;;;;;;56.93;34.97;;;4.90;99.90;;;;;;5026434;28;20209;-26
2022/01/16 03:34:51;;;;;;;55.13;35.97;;;4.90;99.90;;;;;;5028974;28;20205;-26
2022/01/16 03:37:18;;;;;;;58.90;35.83;;;5.00;99.90;;;;;;5029835;28;20642;-26
2022/01/16 03:39:46;;;;;;;56.10;35.07;;;5.00;99.90;;;;;;5029974;28;20208;-26
2022/01/16 03:42:14;;;;;;;54.27;35.30;;;5.00;99.90;;;;;;5029306;28;20232;-26
2022/01/16 03:44:41;;;;;;;58.60;36.00;;;5.00;99.90;;;;;;5027732;28;20217;-26
2022/01/16 03:47:09;;;;;;;57.07;35.00;;;5.00;99.90;;;;;;5029500;28;20243;-26
2022/01/16 03:49:36;;;;;;;54.07;34.87;;;5.10;99.90;;;;;;5028921;28;20197;-25
2022/01/16 03:52:03;;;;;;;54.17;34.50;;;5.10;99.90;;;;;;5009399;28;20209;-24
2022/01/16 03:54:31;;;;;;;55.47;34.33;;;5.10;99.90;;;;;;5008912;28;20244;-24
2022/01/16 03:56:59;;;;;;;57.97;35.97;;;5.10;99.90;;;;;;5009035;28;20687;-24
2022/01/16 03:59:29;;;;;;;54.27;34.43;;;5.10;99.90;;;;;;5008045;28;20297;-24
2022/01/16 04:01:56;;;;;;;57.00;35.47;;;5.20;99.90;;;;;;5009454;28;20209;-24
2022/01/16 04:04:24;;;;;;;57.23;35.27;;;5.20;99.90;;;;;;5008454;28;20327;-24
2022/01/16 04:06:59;;;;;;;56.67;35.23;;;5.20;99.90;;;;;;5008471;28;20214;-24
2022/01/16 04:09:27;;;;;;;54.60;34.27;;;5.20;99.90;;;;;;5009357;28;20232;-26
2022/01/16 04:11:57;;;;;;;59.03;34.60;;;5.30;99.90;;;;;;5007448;28;20297;-26
2022/01/16 04:17:15;;;;;;;55.37;34.80;;;5.30;99.90;;;;;;5009137;28;21150;-26
2022/01/16 04:19:48;;;;;;;53.53;34.17;;;5.30;99.90;;;;;;4989841;28;20288;-26
2022/01/16 04:22:16;;;;;;;56.73;35.70;;;5.30;99.90;;;;;;4989766;28;20720;-25
2022/01/16 04:24:44;;;;;;;60.33;35.90;;;5.30;99.90;;;;;;5006350;28;20597;-26
2022/01/16 04:27:14;;;;;;;58.97;35.83;;;5.30;99.90;;;;;;4992692;28;20217;-26
2022/01/16 04:29:45;;;;;;;58.07;36.13;;;5.40;99.90;;;;;;5003390;28;20202;-26
2022/01/16 04:32:15;;;;;;;53.60;34.03;;;5.40;99.90;;;;;;4989347;28;20194;-26
2022/01/16 04:34:43;;;;;;;54.20;34.47;;;5.40;99.90;;;;;;4988476;28;20318;-26
2022/01/16 04:37:10;;;;;;;58.40;34.53;;;5.40;99.90;;;;;;4989302;28;20198;-26
2022/01/16 04:39:38;;;;;;;55.77;35.97;;;5.40;99.90;;;;;;4990092;28;20202;-26
2022/01/16 04:44:54;;;;;;;57.23;34.73;;;5.50;99.90;;;;;;4989052;28;20210;-26
2022/01/16 04:47:24;;;;;;;61.27;35.73;;;5.50;99.90;;;;;;4988986;28;20313;-26
2022/01/16 04:49:51;;;;;;;60.77;36.33;;;5.50;99.90;;;;;;5001500;28;20204;-26
2022/01/16 04:52:18;;;;;;;59.13;35.10;;;5.50;99.90;;;;;;5027161;28;20213;-26
2022/01/16 04:54:45;;;;;;;61.53;37.50;;;5.50;99.90;;;;;;5027969;28;20658;-26
2022/01/16 04:57:13;;;;;;;63.30;36.10;;;5.50;99.90;;;;;;5026361;28;20223;-26
2022/01/16 04:59:41;;;;;;;65.13;37.00;;;5.50;99.90;;;;;;5026712;28;20228;-26
2022/01/16 05:02:08;;;;;;;64.03;38.10;;;5.50;99.90;;;;;;5026874;28;20217;-26
2022/01/16 05:04:38;;;;;;;60.23;35.67;;;5.50;99.90;;;;;;5027406;28;20212;-26
2022/01/16 05:07:05;;;;;;;58.23;35.80;;;5.50;99.90;;;;;;5027765;28;20208;-26
2022/01/16 05:09:35;;;;;;;62.17;37.43;;;5.50;99.90;;;;;;5027824;28;20298;-26
2022/01/16 05:12:10;;;;;;;57.73;36.10;;;5.50;99.90;;;;;;5026228;28;20634;-26
2022/01/16 05:17:23;;;;;;;56.10;33.77;;;5.50;99.90;;;;;;5027704;28;20717;-26
2022/01/16 05:19:50;;;;;;;60.13;36.50;;;5.50;99.90;;;;;;5023588;28;20246;-26
2022/01/16 05:22:17;;;;;;;63.53;36.57;;;5.50;99.90;;;;;;5018630;28;20315;-26
2022/01/16 05:24:46;;;;;;;61.87;36.07;;;5.50;99.90;;;;;;5027626;28;20634;-26
2022/01/16 05:27:14;;;;;;;65.30;37.00;;;5.50;99.90;;;;;;5027416;28;20296;-26
2022/01/16 05:29:46;;;;;;;60.77;37.03;;;5.50;99.90;;;;;;5027625;28;20255;-26
2022/01/16 05:32:16;;;;;;;60.77;35.47;;;5.50;99.90;;;;;;5027722;28;20299;-26
2022/01/16 05:34:43;;;;;;;60.37;35.37;;;5.50;99.90;;;;;;5026971;28;20225;-26
2022/01/16 05:37:15;;;;;;;57.33;34.67;;;5.50;99.90;;;;;;5027232;28;20589;-25
2022/01/16 05:39:45;;;;;;;63.87;37.27;;;5.50;99.90;;;;;;5027593;28;20584;-24
2022/01/16 05:42:13;;;;;;;57.50;35.80;;;5.50;99.90;;;;;;5027075;28;20304;-24
2022/01/16 05:44:45;;;;;;;63.03;36.37;;;5.50;99.90;;;;;;5027602;28;20228;-24
2022/01/16 05:47:13;;;;;;;61.03;34.93;;;5.50;99.90;;;;;;5028033;28;20215;-24
2022/01/16 05:49:41;;;;;;;64.03;36.80;;;5.50;99.90;;;;;;5026477;28;20791;-24
2022/01/16 05:52:12;;;;;;;61.90;35.97;;;5.50;99.90;;;;;;5027073;28;20304;-24
2022/01/16 05:54:39;;;;;;;62.77;35.40;;;5.50;99.90;;;;;;5027291;28;20228;-24
2022/01/16 05:57:09;;;;;;;66.13;36.97;;;5.50;99.90;;;;;;5027146;28;20512;-24
2022/01/16 05:59:43;;;;;;;60.67;36.67;;;5.50;99.90;;;;;;5018558;28;20220;-24
2022/01/16 06:02:15;;;;;;;62.63;36.13;;;5.50;99.90;;;;;;5023117;28;20223;-24
2022/01/16 06:04:45;;;;;;;60.73;35.43;;;5.50;99.90;;;;;;5026681;28;20247;-24
2022/01/16 06:07:13;;;;;;;61.83;36.17;;;5.50;99.90;;;;;;5027051;28;20201;-24
2022/01/16 06:09:43;;;;;;;66.60;35.50;;;5.50;99.90;;;;;;5027042;28;20231;-25
2022/01/16 06:12:11;;;;;;;58.37;35.73;;;5.50;99.90;;;;;;5026960;28;20729;-24
2022/01/16 06:14:38;;;;;;;59.27;34.63;;;5.50;99.90;;;;;;5031393;28;20205;-24
2022/01/16 06:17:06;;;;;;;63.40;35.80;;;5.50;99.90;;;;;;5032501;28;20679;-26
2022/01/16 06:19:35;;;;;;;66.50;36.87;;;5.50;99.90;;;;;;5024737;28;20205;-26
2022/01/16 06:22:03;;;;;;;66.20;35.47;;;5.50;99.90;;;;;;5026275;28;20209;-26
2022/01/16 06:24:30;;;;;;;64.87;34.57;;;5.50;99.90;;;;;;5017930;28;20761;-26
2022/01/16 06:26:58;;;;;;;61.33;34.07;;;5.50;99.90;;;;;;5026898;28;20237;-26
2022/01/16 06:29:26;;;;;;;60.13;33.63;;;5.50;99.90;;;;;;5027029;28;20642;-26
2022/01/16 06:31:53;;;;;;;58.13;33.53;;;5.50;99.90;;;;;;5025976;28;20232;-26
2022/01/16 06:34:20;;;;;;;62.10;34.40;;;5.60;99.90;;;;;;5024353;28;20217;-26
2022/01/16 06:36:47;;;;;;;63.10;34.50;;;5.60;99.90;;;;;;5027272;28;20656;-26
2022/01/16 06:39:15;;;;;;;61.67;34.97;;;5.50;99.90;;;;;;5030071;28;20209;-26
2022/01/16 06:41:42;;;;;;;59.40;33.77;;;5.60;99.90;;;;;;5030768;28;20259;-26
2022/01/16 06:44:29;;;;;;;62.47;34.90;;;5.60;99.90;;;;;;5028336;28;20720;-26
2022/01/16 06:46:56;;;;;;;62.57;34.33;;;5.60;99.90;;;;;;5022137;28;20205;-26
2022/01/16 06:49:26;;;;;;;59.50;32.67;;;5.60;99.90;;;;;;5022177;28;20217;-26
2022/01/16 06:51:55;;;;;;;60.60;32.80;;;5.60;99.90;;;;;;5023138;28;20248;-26
2022/01/16 06:54:23;;;;;;;61.67;34.77;;;5.60;99.90;;;;;;5026981;28;20575;-26
2022/01/16 06:56:52;;;;;;;59.40;33.00;;;5.60;99.90;;;;;;5035521;28;20203;-26
2022/01/16 06:59:21;;;;;;;61.27;33.17;;;5.60;99.90;;;;;;5027417;28;20255;-26
2022/01/16 07:01:49;;;;;;;61.43;32.17;;;5.60;99.90;;;;;;5037898;28;20599;-26
2022/01/16 07:04:16;;;;;;;63.43;33.67;;;5.60;99.90;;;;;;5032671;28;20204;-26
2022/01/16 07:06:46;;;;;;;58.60;33.33;;;5.60;99.90;;;;;;5032603;28;20213;-26
2022/01/16 07:09:13;;;;;;;62.07;32.77;;;5.70;99.90;;;;;;5032783;28;20228;-26
2022/01/16 07:11:40;;;;;;;58.70;32.23;;;5.70;99.90;;;;;;5030675;28;20212;-26
2022/01/16 07:14:10;;;;;;;62.47;34.80;;;5.70;99.90;;;;;;5028405;28;20212;-26
2022/01/16 07:16:37;;;;;;;60.30;33.30;;;5.70;99.90;;;;;;5039646;28;20205;-26
2022/01/16 07:19:04;;;;;;;64.53;33.57;;;5.70;99.90;;;;;;5029765;28;20217;-26
2022/01/16 07:21:34;;;;;;;60.37;32.93;;;5.70;99.90;;;;;;5026829;28;20211;-26
2022/01/16 07:24:01;;;;;;;61.30;33.37;;;5.70;99.90;;;;;;5026011;28;20578;-26
2022/01/16 07:26:33;;;;;;;61.63;34.67;;;5.80;99.90;;;;;;5034139;28;20350;-26
2022/01/16 07:29:00;;;;;;;68.97;36.13;;;5.80;99.90;;;;;;5031866;28;20319;-26
2022/01/16 07:31:28;;;;;;;66.57;34.43;;;5.80;99.90;;;;;;5019680;28;20710;-26
2022/01/16 07:33:58;;;;;;;63.77;33.70;;;5.80;99.90;;;;;;5025068;28;20314;-26
2022/01/16 07:36:27;;;;;;;66.47;35.23;;;5.80;99.90;;;;;;5028485;28;20212;-26
2022/01/16 07:38:54;;;;;;;62.00;34.70;;;5.80;99.90;;;;;;5026466;28;20891;-26
2022/01/16 07:41:24;;;;;;;67.73;35.07;;;5.90;99.90;;;;;;5025492;28;20668;-26
2022/01/16 07:43:51;;;;;;;61.57;33.53;;;5.90;99.90;;;;;;5026575;28;20274;-25
2022/01/16 07:46:19;;;;;;;64.07;34.97;;;5.90;99.90;;;;;;5028641;28;20287;-26
2022/01/16 07:48:46;;;;;;;63.17;34.30;;;5.90;99.90;;;;;;5026605;28;20220;-26
2022/01/16 07:51:14;;;;;;;64.03;34.20;;;5.90;99.90;;;;;;5027977;28;20237;-26
2022/01/16 07:53:42;;;;;;;61.63;34.90;;;5.90;99.90;;;;;;5028597;28;20274;-26
2022/01/16 07:56:10;;;;;;;64.93;34.00;;;5.90;99.90;;;;;;5029145;28;20208;-26
2022/01/16 07:58:37;;;;;;;66.37;34.50;;;5.90;99.90;;;;;;5027840;28;20230;-26
2022/01/16 08:01:05;;;;;;;65.40;34.90;;;5.90;99.90;;;;;;5027899;28;20240;-26
2022/01/16 08:03:32;;;;;;;69.53;36.83;;;6.00;99.90;;;;;;5029275;28;20205;-25
2022/01/16 08:06:04;;;;;;;72.00;36.33;;;6.00;99.90;;;;;;5027671;28;20683;-24
2022/01/16 08:08:34;;;;;;;67.27;36.10;;;6.00;99.90;;;;;;5028551;28;20224;-24
2022/01/16 08:11:01;;;;;;;65.87;35.37;;;5.90;99.90;;;;;;5028847;28;20220;-24
2022/01/16 08:13:31;;;;;;;66.87;36.20;;;5.90;99.90;;;;;;5028095;28;20197;-24
2022/01/16 08:15:58;;;;;;;66.57;37.10;;;6.00;99.90;;;;;;5027886;28;20225;-24
2022/01/16 08:18:25;;;;;;;70.53;36.50;;;5.90;99.90;;;;;;5025493;28;20686;-24
2022/01/16 08:20:55;;;;;;;69.00;37.97;;;5.90;99.90;;;;;;5026999;28;20209;-24
2022/01/16 08:23:24;;;;;;;72.07;36.93;;;5.90;99.90;;;;;;5028444;28;20225;-24
2022/01/16 08:25:54;;;;;;;70.37;37.87;;;5.90;99.90;;;;;;5027588;28;20252;-24
2022/01/16 08:28:26;;;;;;;79.10;38.50;;;5.90;99.90;;;;;;5028637;28;20628;-24
2022/01/16 08:30:56;;;;;;;70.03;36.37;;;5.90;99.90;;;;;;5026400;28;20197;-24
2022/01/16 08:33:23;;;;;;;66.73;37.47;;;5.90;99.90;;;;;;5025305;28;20300;-24
2022/01/16 08:35:51;;;;;;;71.87;36.23;;;5.90;99.90;;;;;;5025726;28;20215;-24
2022/01/16 08:38:18;;;;;;;68.57;38.07;;;5.90;99.90;;;;;;5031208;28;20542;-24
2022/01/16 08:40:45;;;;;;;70.47;37.13;;;5.90;99.90;;;;;;5032931;28;20200;-24
2022/01/16 08:43:12;;;;;;;66.80;35.40;;;5.90;99.90;;;;;;5046427;28;20192;-24
2022/01/16 08:45:41;;;;;;;63.13;34.70;;;5.90;99.90;;;;;;5027472;28;20223;-24
2022/01/16 08:48:11;;;;;;;64.70;35.77;;;5.90;99.90;;;;;;5028552;28;20200;-24
2022/01/16 08:50:39;;;;;;;62.57;33.80;;;5.90;99.90;;;;;;5026260;28;20327;-24
2022/01/16 08:53:10;;;;;;;64.47;34.70;;;5.90;99.90;;;;;;5027066;28;20625;-24
2022/01/16 08:55:37;;;;;;;64.33;34.13;;;5.90;99.90;;;;;;5027962;28;20216;-24
2022/01/16 08:58:04;;;;;;;60.27;34.40;;;5.90;99.90;;;;;;5027338;28;20211;-24
2022/01/16 09:00:32;;;;;;;60.80;32.60;;;5.90;99.90;;;;;;5027070;28;20238;-24
2022/01/16 09:03:00;;;;;;;57.93;32.27;;;5.90;99.90;;;;;;5027893;28;20582;-24
2022/01/16 09:05:32;;;;;;;59.03;32.03;;;5.90;99.90;;;;;;5026140;28;20583;-24
2022/01/16 09:07:59;;;;;;;62.77;33.37;;;5.90;99.90;;;;;;5026826;28;20232;-24
2022/01/16 09:10:27;;;;;;;62.30;34.73;;;5.90;99.90;;;;;;5025642;28;20221;-24
2022/01/16 09:12:54;;;;;;;67.67;35.03;;;5.90;99.90;;;;;;5029799;28;20216;-24
2022/01/16 09:15:22;;;;;;;59.37;32.27;;;5.90;99.90;;;;;;5047788;28;20239;-24
2022/01/16 09:17:49;;;;;;;61.27;32.83;;;5.90;99.90;;;;;;5032882;28;20196;-26
2022/01/16 09:20:16;;;;;;;63.90;34.57;;;5.90;99.90;;;;;;5014821;28;20300;-24
2022/01/16 09:22:45;;;;;;;59.63;32.30;;;5.90;99.90;;;;;;5027408;28;20581;-25
2022/01/16 09:25:15;;;;;;;63.27;31.67;;;5.90;99.90;;;;;;5026921;28;20316;-24
2022/01/16 09:27:45;;;;;;;57.03;30.60;;;5.90;99.90;;;;;;5027518;28;20241;-24
2022/01/16 09:30:18;;;;;;;61.50;31.90;;;5.90;99.90;;;;;;5027731;28;20699;-24
2022/01/16 09:32:46;;;;;;;60.43;31.80;;;5.90;99.90;;;;;;5027880;28;20667;-24
2022/01/16 09:35:14;;;;;;;61.93;32.50;;;5.90;99.90;;;;;;5026285;28;20201;-24
2022/01/16 09:37:43;;;;;;;64.63;32.00;;;5.90;99.90;;;;;;5026703;28;20213;-24
2022/01/16 09:40:12;;;;;;;58.90;31.40;;;5.90;99.90;;;;;;5025690;28;20287;-24
2022/01/16 09:42:40;;;;;;;58.27;32.10;;;5.90;99.90;;;;;;5027373;28;20205;-24
2022/01/16 09:45:10;;;;;;;58.30;31.93;;;5.90;99.90;;;;;;5058571;28;20212;-26
2022/01/16 09:47:44;;;;;;;58.43;31.27;;;5.90;99.90;;;;;;5021406;28;20266;-26
2022/01/16 09:50:17;;;;;;;55.57;30.03;;;5.90;99.90;;;;;;5007835;28;20284;-26
2022/01/16 09:52:48;;;;;;;57.33;29.80;;;6.00;99.90;;;;;;5015663;28;20233;-24
2022/01/16 09:55:17;;;;;;;56.63;30.30;;;6.00;99.90;;;;;;5023940;28;20263;-24
2022/01/16 09:57:45;;;;;;;58.33;31.57;;;6.00;99.90;;;;;;5017644;28;20213;-24
2022/01/16 10:00:16;;;;;;;57.80;31.13;;;6.00;99.90;;;;;;5019416;28;20197;-24
2022/01/16 10:02:47;;;;;;;51.37;29.53;;;6.00;99.90;;;;;;5016534;28;20209;-24
2022/01/16 10:05:29;;;;;;;55.37;30.30;;;6.00;99.90;;;;;;5026535;28;20227;-24
2022/01/16 10:07:59;;;;;;;54.90;29.93;;;6.10;99.90;;;;;;5031953;28;20579;-24
2022/01/16 10:10:46;;;;;;;54.07;30.13;;;6.10;99.90;;;;;;5026824;28;20252;-24
2022/01/16 10:13:20;;;;;;;54.00;29.70;;;6.10;99.90;;;;;;5038730;28;20216;-24
2022/01/16 10:15:55;;;;;;;54.50;30.20;;;6.10;99.90;;;;;;5035761;28;20654;-24
2022/01/16 10:18:39;;;;;;;52.30;29.17;;;6.20;99.90;;;;;;5022695;28;20239;-24
2022/01/16 10:21:08;;;;;;;54.57;29.10;;;6.20;99.90;;;;;;5029766;28;20256;-24
2022/01/16 10:23:40;;;;;;;50.60;28.87;;;6.20;99.90;;;;;;5031609;28;20527;-24
2022/01/16 10:26:21;;;;;;;56.60;30.23;;;6.20;99.90;;;;;;5030881;28;20200;-24
2022/01/16 10:28:50;;;;;;;49.73;29.27;;;6.30;99.90;;;;;;5027620;28;20209;-28
2022/01/16 10:31:20;;;;;;;57.87;29.53;;;6.30;99.90;;;;;;5027518;28;20189;-24
2022/01/16 10:33:47;;;;;;;54.10;29.73;;;6.30;99.90;;;;;;5023975;28;20243;-24
2022/01/16 10:36:31;;;;;;;53.50;29.37;;;6.30;99.90;;;;;;5028472;28;20233;-24
2022/01/16 10:39:10;;;;;;;49.07;28.67;;;6.30;99.90;;;;;;5023016;28;20209;-25
2022/01/16 10:41:38;;;;;;;52.80;28.83;;;6.30;99.90;;;;;;5015747;28;20740;-24
2022/01/16 10:44:26;;;;;;;55.43;28.63;;;6.40;99.90;;;;;;5023228;28;21032;-24
2022/01/16 10:46:53;;;;;;;50.67;28.63;;;6.40;99.90;;;;;;5025647;28;20237;-25
2022/01/16 10:49:20;;;;;;;52.73;28.27;;;6.40;99.90;;;;;;5009986;28;20224;-24
2022/01/16 10:52:03;;;;;;;49.90;27.67;;;6.40;99.90;;;;;;5023869;28;20236;-24
2022/01/16 10:54:34;;;;;;;49.23;27.50;;;6.40;99.90;;;;;;5027713;28;20209;-24
2022/01/16 10:57:27;;;;;;;48.83;28.30;;;6.40;99.90;;;;;;5036264;28;20629;-24
2022/01/16 11:00:12;;;;;;;44.10;26.57;;;6.50;99.90;;;;;;5023266;28;20204;-24
2022/01/16 11:02:40;;;;;;;49.50;26.70;;;6.50;99.90;;;;;;5025740;28;20227;-24
2022/01/16 11:05:15;;;;;;;45.13;25.67;;;6.50;99.90;;;;;;5027370;28;20768;-24
2022/01/16 11:07:42;;;;;;;40.63;24.20;;;6.50;99.90;;;;;;5032550;28;20200;-24
2022/01/16 11:10:28;;;;;;;41.43;24.73;;;6.50;99.90;;;;;;5024474;28;20244;-24
2022/01/16 11:13:02;;;;;;;41.90;24.70;;;6.60;99.90;;;;;;5023058;28;20193;-24
2022/01/16 11:15:36;;;;;;;39.80;23.97;;;6.60;99.90;;;;;;5022534;28;20645;-24
2022/01/16 11:18:05;;;;;;;41.43;23.97;;;6.60;99.90;;;;;;5012300;28;20254;-24
2022/01/16 11:20:36;;;;;;;38.53;23.20;;;6.60;99.90;;;;;;5001774;28;20630;-24
2022/01/16 11:26:04;;;;;;;40.37;23.67;;;6.60;99.90;;;;;;5021413;28;20201;-24
2022/01/16 11:28:34;;;;;;;37.87;22.90;;;6.60;99.90;;;;;;5021311;28;20206;-24
2022/01/16 11:31:05;;;;;;;38.23;22.93;;;6.60;99.90;;;;;;5019223;28;20711;-24
2022/01/16 11:33:34;;;;;;;35.17;21.40;;;6.60;99.90;;;;;;5021177;28;20197;-24
2022/01/16 11:36:06;;;;;;;33.43;20.93;;;6.60;99.90;;;;;;5019599;28;20697;-24
2022/01/16 11:38:40;;;;;;;35.57;21.03;;;6.70;99.90;;;;;;5021676;28;20204;-26
2022/01/16 11:41:19;;;;;;;30.33;19.43;;;6.70;99.90;;;;;;5014254;28;20267;-26
2022/01/16 11:43:50;;;;;;;27.17;18.90;;;6.70;99.90;;;;;;5016919;28;20204;-26
2022/01/16 11:46:19;;;;;;;28.87;17.73;;;6.70;99.90;;;;;;5018279;28;20201;-26
2022/01/16 11:48:58;;;;;;;28.00;18.13;;;6.70;99.90;;;;;;5016767;28;20213;-26
2022/01/16 11:54:19;;;;;;;26.90;17.30;;;6.80;99.90;;;;;;5036794;28;20300;-25
2022/01/16 11:56:46;;;;;;;24.93;16.10;;;6.80;99.90;;;;;;5028180;28;20209;-26
2022/01/16 11:59:25;;;;;;;28.63;18.13;;;6.80;99.90;;;;;;5029430;28;20658;-26
2022/01/16 12:02:01;;;;;;;26.67;17.10;;;6.80;99.90;;;;;;5023359;28;20220;-26
2022/01/16 12:04:28;;;;;;;27.93;18.40;;;6.80;99.90;;;;;;5018977;28;20687;-26
2022/01/16 12:07:00;;;;;;;26.17;17.87;;;6.80;99.90;;;;;;5023883;28;20212;-26
2022/01/16 12:09:34;;;;;;;29.10;18.57;;;6.80;99.90;;;;;;5057123;28;20557;-26
2022/01/16 12:12:23;;;;;;;31.07;18.73;;;6.80;99.90;;;;;;5024407;28;20201;-26
2022/01/16 12:14:59;;;;;;;32.70;20.63;;;6.80;99.90;;;;;;5028705;28;20604;-26
2022/01/16 12:17:48;;;;;;;31.70;19.37;;;6.80;99.90;;;;;;5022201;28;20204;-26
2022/01/16 12:20:17;;;;;;;34.33;20.67;;;6.80;99.90;;;;;;5025745;28;20634;-26
2022/01/16 12:22:55;;;;;;;32.50;20.03;;;6.80;99.90;;;;;;5031365;28;20225;-26
2022/01/16 12:25:50;;;;;;;35.60;20.43;;;6.80;99.90;;;;;;5036315;28;20618;-26
2022/01/16 12:28:23;;;;;;;31.63;19.57;;;6.80;99.90;;;;;;5028050;28;20266;-26
2022/01/16 12:30:59;;;;;;;35.63;21.40;;;6.80;99.90;;;;;;5023428;28;20220;-26
2022/01/16 12:33:34;;;;;;;36.23;20.23;;;6.80;99.90;;;;;;5027520;28;20209;-26
2022/01/16 12:36:08;;;;;;;37.03;21.67;;;6.80;99.90;;;;;;5024025;28;20640;-26
2022/01/16 12:38:52;;;;;;;34.67;21.03;;;6.80;99.90;;;;;;5028522;28;20280;-26
2022/01/16 12:41:30;;;;;;;38.17;22.33;;;6.80;99.90;;;;;;5026999;28;20230;-26
2022/01/16 12:44:07;;;;;;;37.13;22.23;;;6.80;99.90;;;;;;5026330;28;20207;-26
2022/01/16 12:46:45;;;;;;;33.80;20.80;;;6.90;99.90;;;;;;5026303;28;20224;-26
2022/01/16 12:49:13;;;;;;;34.10;20.37;;;6.90;99.90;;;;;;5022222;28;20280;-26
2022/01/16 12:51:44;;;;;;;34.43;21.17;;;6.90;99.90;;;;;;5025929;28;20256;-26
2022/01/16 12:54:17;;;;;;;36.43;21.20;;;6.90;99.90;;;;;;5013565;28;20606;-26
2022/01/16 12:56:46;;;;;;;36.47;21.73;;;6.90;99.90;;;;;;5024209;28;20205;-26
2022/01/16 12:59:38;;;;;;;38.50;22.17;;;6.90;99.90;;;;;;5023677;28;20205;-26
2022/01/16 13:02:07;;;;;;;34.43;21.67;;;6.90;99.90;;;;;;5021861;28;20216;-26
2022/01/16 13:04:40;;;;;;;32.43;20.70;;;6.90;99.90;;;;;;5017002;28;20228;-26
2022/01/16 13:07:27;;;;;;;34.10;20.93;;;6.90;99.90;;;;;;5026381;28;20243;-26
2022/01/16 13:09:55;;;;;;;34.87;21.53;;;6.90;99.90;;;;;;5031154;28;20232;-26
2022/01/16 13:12:25;;;;;;;36.83;22.03;;;6.90;99.90;;;;;;5027168;28;20295;-26
2022/01/16 13:14:57;;;;;;;34.40;21.77;;;6.90;99.90;;;;;;5026878;28;20370;-26
2022/01/16 13:17:24;;;;;;;39.17;22.53;;;6.90;99.90;;;;;;5006061;28;20237;-26
2022/01/16 13:19:54;;;;;;;33.70;20.80;;;6.90;99.90;;;;;;5027923;28;20201;-26
2022/01/16 13:22:27;;;;;;;38.37;22.00;;;6.90;99.90;;;;;;5011570;28;20639;-26
2022/01/16 13:24:58;;;;;;;35.53;21.17;;;6.90;99.90;;;;;;5024647;28;20232;-26
2022/01/16 13:27:32;;;;;;;34.87;21.23;;;6.90;99.90;;;;;;5026786;28;20580;-26
2022/01/16 13:30:10;;;;;;;33.90;21.50;;;7.00;99.90;;;;;;5021525;28;20273;-26
2022/01/16 13:32:39;;;;;;;35.07;20.97;;;7.00;99.90;;;;;;5034300;28;20613;-26
2022/01/16 13:35:25;;;;;;;35.13;21.47;;;7.00;99.90;;;;;;5020397;28;20323;-26
2022/01/16 13:38:01;;;;;;;37.50;21.30;;;7.00;99.90;;;;;;5023400;28;20254;-26